sensor_id;sensor_type;location;lat;lon;timestamp;pressure;altitude;pressure_sealevel;temperature;humidity
57990;BME280;58373;51.824;5.564;2023-08-20T00:01:41;101996.03;;;18.70;95.34
57990;BME280;58373;51.824;5.564;2023-08-20T00:04:07;101994.63;;;18.66;95.25
57990;BME280;58373;51.824;5.564;2023-08-20T00:06:32;101997.44;;;18.64;95.44
57990;BME280;58373;51.824;5.564;2023-08-20T00:08:57;101993.81;;;18.65;95.51
57990;BME280;58373;51.824;5.564;2023-08-20T00:11:23;101992.72;;;18.68;95.27
57990;BME280;58373;51.824;5.564;2023-08-20T00:13:48;101994.34;;;18.69;95.13
57990;BME280;58373;51.824;5.564;2023-08-20T00:16:13;101994.34;;;18.69;95.00
57990;BME280;58373;51.824;5.564;2023-08-20T00:18:38;101990.78;;;18.70;94.97
57990;BME280;58373;51.824;5.564;2023-08-20T00:21:04;101989.09;;;18.69;94.90
57990;BME280;58373;51.824;5.564;2023-08-20T00:23:29;101992.72;;;18.68;94.69
57990;BME280;58373;51.824;5.564;2023-08-20T00:25:55;101994.34;;;18.69;94.64
57990;BME280;58373;51.824;5.564;2023-08-20T00:28:20;102001.53;;;18.67;94.66
57990;BME280;58373;51.824;5.564;2023-08-20T00:30:45;101990.22;;;18.66;94.48
57990;BME280;58373;51.824;5.564;2023-08-20T00:33:11;102001.81;;;18.64;94.33
57990;BME280;58373;51.824;5.564;2023-08-20T00:35:36;102004.63;;;18.62;94.49
57990;BME280;58373;51.824;5.564;2023-08-20T00:38:01;102002.13;;;18.61;94.33
57990;BME280;58373;51.824;5.564;2023-08-20T00:40:27;102009.34;;;18.58;94.30
57990;BME280;58373;51.824;5.564;2023-08-20T00:42:53;102018.19;;;18.57;94.44
57990;BME280;58373;51.824;5.564;2023-08-20T00:45:18;102011.28;;;18.56;94.45
57990;BME280;58373;51.824;5.564;2023-08-20T00:47:43;102011.28;;;18.56;94.37
57990;BME280;58373;51.824;5.564;2023-08-20T00:50:09;102009.63;;;18.55;94.39
57990;BME280;58373;51.824;5.564;2023-08-20T00:52:34;102014.06;;;18.55;94.30
57990;BME280;58373;51.824;5.564;2023-08-20T00:55:00;102018.50;;;18.54;94.03
57990;BME280;58373;51.824;5.564;2023-08-20T00:57:28;102016.16;;;18.51;94.25
57990;BME280;58373;51.824;5.564;2023-08-20T00:59:53;102030.97;;;18.52;94.22
57990;BME280;58373;51.824;5.564;2023-08-20T01:02:19;102022.38;;;18.50;94.16
57990;BME280;58373;51.824;5.564;2023-08-20T01:04:45;102029.59;;;18.48;94.20
57990;BME280;58373;51.824;5.564;2023-08-20T01:07:14;102038.75;;;18.44;94.29
57990;BME280;58373;51.824;5.564;2023-08-20T01:12:20;102031.44;;;18.38;94.84
57990;BME280;58373;51.824;5.564;2023-08-20T01:14:47;102030.19;;;18.42;94.84
57990;BME280;58373;51.824;5.564;2023-08-20T01:17:12;102040.38;;;18.45;94.85
57990;BME280;58373;51.824;5.564;2023-08-20T01:19:37;102037.09;;;18.43;94.83
57990;BME280;58373;51.824;5.564;2023-08-20T01:27:08;102048.59;;;18.42;95.33
57990;BME280;58373;51.824;5.564;2023-08-20T01:29:35;102050.38;;;18.42;95.33
57990;BME280;58373;51.824;5.564;2023-08-20T01:32:01;102052.84;;;18.43;95.50
57990;BME280;58373;51.824;5.564;2023-08-20T01:34:27;102059.09;;;18.42;95.39
57990;BME280;58373;51.824;5.564;2023-08-20T01:36:52;102066.28;;;18.40;95.55
57990;BME280;58373;51.824;5.564;2023-08-20T01:39:18;102067.25;;;18.39;95.66
57990;BME280;58373;51.824;5.564;2023-08-20T01:41:43;102062.16;;;18.38;95.97
57990;BME280;58373;51.824;5.564;2023-08-20T01:44:09;102056.22;;;18.36;96.00
57990;BME280;58373;51.824;5.564;2023-08-20T01:46:34;102056.06;;;18.37;96.15
57990;BME280;58373;51.824;5.564;2023-08-20T01:48:59;102052.06;;;18.33;96.17
57990;BME280;58373;51.824;5.564;2023-08-20T01:51:24;102055.69;;;18.32;96.37
57990;BME280;58373;51.824;5.564;2023-08-20T01:53:50;102062.59;;;18.33;96.39
57990;BME280;58373;51.824;5.564;2023-08-20T01:56:15;102077.34;;;18.34;96.45
57990;BME280;58373;51.824;5.564;2023-08-20T01:58:41;102077.50;;;18.33;96.37
57990;BME280;58373;51.824;5.564;2023-08-20T02:01:06;102074.22;;;18.30;96.66
57990;BME280;58373;51.824;5.564;2023-08-20T02:03:31;102072.41;;;18.31;96.54
57990;BME280;58373;51.824;5.564;2023-08-20T02:05:56;102079.31;;;18.32;96.66
57990;BME280;58373;51.824;5.564;2023-08-20T02:08:22;102088.84;;;18.33;96.70
57990;BME280;58373;51.824;5.564;2023-08-20T02:10:48;102089.16;;;18.30;96.64
57990;BME280;58373;51.824;5.564;2023-08-20T02:13:13;102097.16;;;18.28;96.79
57990;BME280;58373;51.824;5.564;2023-08-20T02:15:38;102096.31;;;18.28;96.72
57990;BME280;58373;51.824;5.564;2023-08-20T02:18:04;102093.03;;;18.26;96.68
57990;BME280;58373;51.824;5.564;2023-08-20T02:20:29;102090.28;;;18.18;96.81
57990;BME280;58373;51.824;5.564;2023-08-20T02:22:54;102085.59;;;18.12;96.86
57990;BME280;58373;51.824;5.564;2023-08-20T02:25:20;102078.47;;;18.04;96.87
57990;BME280;58373;51.824;5.564;2023-08-20T02:27:45;102088.41;;;18.00;97.00
57990;BME280;58373;51.824;5.564;2023-08-20T02:30:10;102092.31;;;17.96;97.24
57990;BME280;58373;51.824;5.564;2023-08-20T02:32:38;102084.69;;;17.93;97.41
57990;BME280;58373;51.824;5.564;2023-08-20T02:35:03;102082.06;;;17.93;97.37
57990;BME280;58373;51.824;5.564;2023-08-20T02:37:30;102086.34;;;17.94;97.53
57990;BME280;58373;51.824;5.564;2023-08-20T02:39:55;102090.66;;;17.95;97.44
57990;BME280;58373;51.824;5.564;2023-08-20T02:42:20;102090.34;;;17.98;97.83
57990;BME280;58373;51.824;5.564;2023-08-20T02:44:46;102088.41;;;18.00;97.71
57990;BME280;58373;51.824;5.564;2023-08-20T02:47:11;102086.47;;;18.02;97.54
57990;BME280;58373;51.824;5.564;2023-08-20T02:49:36;102088.13;;;18.03;97.47
57990;BME280;58373;51.824;5.564;2023-08-20T02:52:01;102087.16;;;18.04;97.42
57990;BME280;58373;51.824;5.564;2023-08-20T02:54:28;102075.00;;;18.03;97.52
57990;BME280;58373;51.824;5.564;2023-08-20T02:56:54;102074.84;;;18.05;97.30
57990;BME280;58373;51.824;5.564;2023-08-20T02:59:19;102072.38;;;18.03;97.19
57990;BME280;58373;51.824;5.564;2023-08-20T03:01:44;102078.47;;;18.04;97.07
57990;BME280;58373;51.824;5.564;2023-08-20T03:04:09;102065.63;;;18.01;96.85
57990;BME280;58373;51.824;5.564;2023-08-20T03:06:35;102063.84;;;18.01;96.73
57990;BME280;58373;51.824;5.564;2023-08-20T03:09:00;102068.38;;;17.99;96.87
57990;BME280;58373;51.824;5.564;2023-08-20T03:11:25;102066.72;;;17.98;96.70
57990;BME280;58373;51.824;5.564;2023-08-20T03:13:50;102061.78;;;17.95;96.46
57990;BME280;58373;51.824;5.564;2023-08-20T03:16:16;102066.31;;;17.93;96.35
57990;BME280;58373;51.824;5.564;2023-08-20T03:18:41;102062.22;;;17.91;96.33
57990;BME280;58373;51.824;5.564;2023-08-20T03:21:06;102063.31;;;17.88;96.33
57990;BME280;58373;51.824;5.564;2023-08-20T03:23:31;102056.41;;;17.87;96.27
57990;BME280;58373;51.824;5.564;2023-08-20T03:25:59;102065.25;;;17.86;96.26
57990;BME280;58373;51.824;5.564;2023-08-20T03:28:25;102055.03;;;17.83;96.22
57990;BME280;58373;51.824;5.564;2023-08-20T03:30:50;102062.22;;;17.81;96.19
57990;BME280;58373;51.824;5.564;2023-08-20T03:33:15;102065.81;;;17.80;96.05
57990;BME280;58373;51.824;5.564;2023-08-20T03:35:42;102064.44;;;17.76;96.10
57990;BME280;58373;51.824;5.564;2023-08-20T03:38:07;102062.22;;;17.71;96.17
57990;BME280;58373;51.824;5.564;2023-08-20T03:40:32;102060.28;;;17.64;96.29
57990;BME280;58373;51.824;5.564;2023-08-20T03:42:57;102064.47;;;17.57;96.60
57990;BME280;58373;51.824;5.564;2023-08-20T03:45:23;102065.28;;;17.47;96.88
57990;BME280;58373;51.824;5.564;2023-08-20T03:47:48;102064.47;;;17.37;96.91
57990;BME280;58373;51.824;5.564;2023-08-20T03:50:13;102070.25;;;17.31;96.99
57990;BME280;58373;51.824;5.564;2023-08-20T03:52:38;102070.81;;;17.25;97.04
57990;BME280;58373;51.824;5.564;2023-08-20T03:55:04;102074.97;;;17.18;97.13
57990;BME280;58373;51.824;5.564;2023-08-20T03:57:30;102076.50;;;17.11;97.63
57990;BME280;58373;51.824;5.564;2023-08-20T03:59:55;102081.31;;;17.06;97.61
57990;BME280;58373;51.824;5.564;2023-08-20T04:02:20;102085.16;;;17.02;97.91
57990;BME280;58373;51.824;5.564;2023-08-20T04:04:45;102088.06;;;16.98;98.08
57990;BME280;58373;51.824;5.564;2023-08-20T04:07:10;102085.44;;;16.98;98.11
57990;BME280;58373;51.824;5.564;2023-08-20T04:09:35;102079.91;;;17.02;98.09
57990;BME280;58373;51.824;5.564;2023-08-20T04:12:01;102093.75;;;17.04;98.11
57990;BME280;58373;51.824;5.564;2023-08-20T04:14:27;102086.56;;;17.06;98.22
57990;BME280;58373;51.824;5.564;2023-08-20T04:16:52;102091.50;;;17.09;98.04
57990;BME280;58373;51.824;5.564;2023-08-20T04:19:17;102091.50;;;17.09;97.79
57990;BME280;58373;51.824;5.564;2023-08-20T04:21:42;102089.59;;;17.11;97.89
57990;BME280;58373;51.824;5.564;2023-08-20T04:24:08;102087.94;;;17.10;97.86
57990;BME280;58373;51.824;5.564;2023-08-20T04:26:33;102085.31;;;17.10;97.65
57990;BME280;58373;51.824;5.564;2023-08-20T04:28:58;102088.78;;;17.10;97.63
57990;BME280;58373;51.824;5.564;2023-08-20T04:31:23;102087.94;;;17.10;97.33
57990;BME280;58373;51.824;5.564;2023-08-20T04:33:48;102085.19;;;17.11;97.46
57990;BME280;58373;51.824;5.564;2023-08-20T04:36:14;102084.34;;;17.11;97.72
57990;BME280;58373;51.824;5.564;2023-08-20T04:38:39;102095.38;;;17.05;97.33
57990;BME280;58373;51.824;5.564;2023-08-20T04:41:04;102096.75;;;16.99;97.62
57990;BME280;58373;51.824;5.564;2023-08-20T04:43:29;102102.53;;;16.93;97.51
57990;BME280;58373;51.824;5.564;2023-08-20T04:45:54;102104.88;;;16.86;97.47
57990;BME280;58373;51.824;5.564;2023-08-20T04:48:19;102099.47;;;16.78;97.45
57990;BME280;58373;51.824;5.564;2023-08-20T04:50:45;102106.22;;;16.71;97.86
57990;BME280;58373;51.824;5.564;2023-08-20T04:53:11;102103.81;;;16.68;98.02
57990;BME280;58373;51.824;5.564;2023-08-20T04:55:36;102109.06;;;16.68;98.20
57990;BME280;58373;51.824;5.564;2023-08-20T04:58:01;102111.97;;;16.65;98.25
57990;BME280;58373;51.824;5.564;2023-08-20T05:00:26;102106.53;;;16.57;98.29
57990;BME280;58373;51.824;5.564;2023-08-20T05:02:51;102113.13;;;16.51;98.33
57990;BME280;58373;51.824;5.564;2023-08-20T05:05:17;102119.22;;;16.52;98.55
57990;BME280;58373;51.824;5.564;2023-08-20T05:07:43;102119.47;;;16.49;98.80
57990;BME280;58373;51.824;5.564;2023-08-20T05:10:09;102120.06;;;16.52;99.10
57990;BME280;58373;51.824;5.564;2023-08-20T05:12:34;102120.88;;;16.53;99.21
57990;BME280;58373;51.824;5.564;2023-08-20T05:14:59;102117.97;;;16.56;99.28
57990;BME280;58373;51.824;5.564;2023-08-20T05:17:25;102121.56;;;16.55;99.25
57990;BME280;58373;51.824;5.564;2023-08-20T05:19:50;102124.19;;;16.55;99.36
57990;BME280;58373;51.824;5.564;2023-08-20T05:22:15;102125.84;;;16.56;99.78
57990;BME280;58373;51.824;5.564;2023-08-20T05:24:40;102123.94;;;16.58;99.89
57990;BME280;58373;51.824;5.564;2023-08-20T05:29:31;102137.44;;;16.63;99.78
57990;BME280;58373;51.824;5.564;2023-08-20T05:31:56;102144.91;;;16.67;100.00
57990;BME280;58373;51.824;5.564;2023-08-20T05:34:21;102141.22;;;16.70;100.00
57990;BME280;58373;51.824;5.564;2023-08-20T05:36:46;102140.00;;;16.74;100.00
57990;BME280;58373;51.824;5.564;2023-08-20T05:39:12;102136.44;;;16.75;100.00
57990;BME280;58373;51.824;5.564;2023-08-20T05:41:37;102139.47;;;16.80;100.00
57990;BME280;58373;51.824;5.564;2023-08-20T05:44:02;102144.19;;;16.86;100.00
57990;BME280;58373;51.824;5.564;2023-08-20T05:46:27;102145.56;;;16.90;100.00
57990;BME280;58373;51.824;5.564;2023-08-20T05:48:53;102146.97;;;16.94;100.00
57990;BME280;58373;51.824;5.564;2023-08-20T05:51:18;102150.25;;;16.96;100.00
57990;BME280;58373;51.824;5.564;2023-08-20T05:53:43;102147.25;;;17.01;100.00
57990;BME280;58373;51.824;5.564;2023-08-20T05:56:08;102141.75;;;17.04;100.00
57990;BME280;58373;51.824;5.564;2023-08-20T05:58:34;102151.13;;;17.07;100.00
57990;BME280;58373;51.824;5.564;2023-08-20T06:01:02;102152.50;;;17.11;99.82
57990;BME280;58373;51.824;5.564;2023-08-20T06:03:27;102148.66;;;17.15;99.85
57990;BME280;58373;51.824;5.564;2023-08-20T06:05:52;102151.97;;;17.17;99.77
57990;BME280;58373;51.824;5.564;2023-08-20T06:08:17;102147.28;;;17.20;99.61
57990;BME280;58373;51.824;5.564;2023-08-20T06:10:42;102155.69;;;17.24;99.53
57990;BME280;58373;51.824;5.564;2023-08-20T06:13:08;102158.06;;;17.27;99.36
57990;BME280;58373;51.824;5.564;2023-08-20T06:15:34;102150.63;;;17.32;99.17
57990;BME280;58373;51.824;5.564;2023-08-20T06:17:59;102153.91;;;17.34;98.97
57990;BME280;58373;51.824;5.564;2023-08-20T06:20:24;102151.72;;;17.39;98.86
57990;BME280;58373;51.824;5.564;2023-08-20T06:22:49;102155.84;;;17.42;98.95
57990;BME280;58373;51.824;5.564;2023-08-20T06:25:14;102146.59;;;17.47;98.99
57990;BME280;58373;51.824;5.564;2023-08-20T06:27:40;102149.66;;;17.52;98.64
57990;BME280;58373;51.824;5.564;2023-08-20T06:30:06;102149.09;;;17.59;98.78
57990;BME280;58373;51.824;5.564;2023-08-20T06:32:31;102142.88;;;17.60;98.42
57990;BME280;58373;51.824;5.564;2023-08-20T06:34:57;102152.28;;;17.72;98.39
57990;BME280;58373;51.824;5.564;2023-08-20T06:37:22;102162.50;;;17.75;98.46
57990;BME280;58373;51.824;5.564;2023-08-20T06:39:50;102156.69;;;17.81;98.20
57990;BME280;58373;51.824;5.564;2023-08-20T06:42:15;102155.63;;;17.84;98.17
57990;BME280;58373;51.824;5.564;2023-08-20T06:44:40;102155.88;;;17.90;98.14
57990;BME280;58373;51.824;5.564;2023-08-20T06:47:06;102150.88;;;17.97;98.11
57990;BME280;58373;51.824;5.564;2023-08-20T06:49:31;102155.28;;;18.06;98.08
57990;BME280;58373;51.824;5.564;2023-08-20T06:51:56;102153.88;;;18.12;97.88
57990;BME280;58373;51.824;5.564;2023-08-20T06:54:21;102148.06;;;18.18;98.02
57990;BME280;58373;51.824;5.564;2023-08-20T06:56:46;102151.63;;;18.26;97.78
57990;BME280;58373;51.824;5.564;2023-08-20T06:59:12;102148.00;;;18.37;97.48
57990;BME280;58373;51.824;5.564;2023-08-20T07:01:37;102151.03;;;18.42;96.77
57990;BME280;58373;51.824;5.564;2023-08-20T07:04:02;102148.81;;;18.47;96.51
57990;BME280;58373;51.824;5.564;2023-08-20T07:06:27;102149.31;;;18.51;96.39
57990;BME280;58373;51.824;5.564;2023-08-20T07:08:53;102146.00;;;18.58;96.21
57990;BME280;58373;51.824;5.564;2023-08-20T07:11:18;102155.66;;;18.68;95.96
57990;BME280;58373;51.824;5.564;2023-08-20T07:13:43;102155.06;;;18.74;95.98
57990;BME280;58373;51.824;5.564;2023-08-20T07:16:08;102160.44;;;18.82;95.80
57990;BME280;58373;51.824;5.564;2023-08-20T07:18:33;102157.50;;;18.85;95.36
57990;BME280;58373;51.824;5.564;2023-08-20T07:20:59;102156.91;;;18.91;95.36
57990;BME280;58373;51.824;5.564;2023-08-20T07:23:24;102154.81;;;18.95;95.14
57990;BME280;58373;51.824;5.564;2023-08-20T07:25:49;102148.81;;;19.02;94.94
57990;BME280;58373;51.824;5.564;2023-08-20T07:28:17;102155.13;;;19.09;94.72
57990;BME280;58373;51.824;5.564;2023-08-20T07:30:51;102157.94;;;19.26;93.40
57990;BME280;58373;51.824;5.564;2023-08-20T07:33:16;102164.47;;;19.22;93.75
57990;BME280;58373;51.824;5.564;2023-08-20T07:35:41;102161.91;;;19.30;94.14
57990;BME280;58373;51.824;5.564;2023-08-20T07:38:06;102163.78;;;19.37;93.69
57990;BME280;58373;51.824;5.564;2023-08-20T07:40:32;102169.31;;;19.44;93.10
57990;BME280;58373;51.824;5.564;2023-08-20T07:42:57;102175.47;;;19.53;93.18
57990;BME280;58373;51.824;5.564;2023-08-20T07:45:22;102167.53;;;19.62;92.18
57990;BME280;58373;51.824;5.564;2023-08-20T07:47:47;102176.41;;;19.61;92.19
57990;BME280;58373;51.824;5.564;2023-08-20T07:50:13;102174.81;;;19.69;92.22
57990;BME280;58373;51.824;5.564;2023-08-20T07:52:38;102176.50;;;19.78;91.42
57990;BME280;58373;51.824;5.564;2023-08-20T07:55:03;102181.16;;;19.84;91.92
57990;BME280;58373;51.824;5.564;2023-08-20T07:57:28;102181.91;;;19.94;91.61
57990;BME280;58373;51.824;5.564;2023-08-20T07:59:53;102182.34;;;20.07;91.42
57990;BME280;58373;51.824;5.564;2023-08-20T08:02:19;102184.72;;;20.19;91.48
57990;BME280;58373;51.824;5.564;2023-08-20T08:04:44;102187.44;;;20.35;91.04
57990;BME280;58373;51.824;5.564;2023-08-20T08:07:09;102188.03;;;20.47;90.35
57990;BME280;58373;51.824;5.564;2023-08-20T08:09:35;102183.28;;;20.50;90.06
57990;BME280;58373;51.824;5.564;2023-08-20T08:12:00;102185.44;;;20.55;89.49
57990;BME280;58373;51.824;5.564;2023-08-20T08:14:26;102194.84;;;20.57;89.55
57990;BME280;58373;51.824;5.564;2023-08-20T08:16:51;102190.59;;;20.64;88.39
57990;BME280;58373;51.824;5.564;2023-08-20T08:19:16;102186.66;;;20.68;88.51
57990;BME280;58373;51.824;5.564;2023-08-20T08:21:42;102194.91;;;20.74;87.73
57990;BME280;58373;51.824;5.564;2023-08-20T08:24:08;102190.97;;;20.78;87.22
57990;BME280;58373;51.824;5.564;2023-08-20T08:26:33;102192.81;;;20.85;85.57
57990;BME280;58373;51.824;5.564;2023-08-20T08:28:59;102198.09;;;20.85;86.44
57990;BME280;58373;51.824;5.564;2023-08-20T08:31:24;102206.88;;;20.94;85.46
57990;BME280;58373;51.824;5.564;2023-08-20T08:33:49;102204.88;;;20.96;85.76
57990;BME280;58373;51.824;5.564;2023-08-20T08:36:15;102206.59;;;21.05;85.71
57990;BME280;58373;51.824;5.564;2023-08-20T08:38:41;102196.38;;;21.18;84.81
57990;BME280;58373;51.824;5.564;2023-08-20T08:41:08;102191.09;;;21.27;82.46
57990;BME280;58373;51.824;5.564;2023-08-20T08:43:35;102193.09;;;21.25;83.68
57990;BME280;58373;51.824;5.564;2023-08-20T08:46:00;102201.03;;;21.33;83.49
57990;BME280;58373;51.824;5.564;2023-08-20T08:48:26;102203.38;;;21.44;83.59
57990;BME280;58373;51.824;5.564;2023-08-20T08:50:52;102199.75;;;21.61;81.42
57990;BME280;58373;51.824;5.564;2023-08-20T08:53:17;102205.03;;;21.61;81.66
57990;BME280;58373;51.824;5.564;2023-08-20T08:55:42;102212.16;;;21.69;80.32
57990;BME280;58373;51.824;5.564;2023-08-20T08:58:08;102209.84;;;21.74;79.97
57990;BME280;58373;51.824;5.564;2023-08-20T09:00:33;102206.69;;;21.79;79.85
57990;BME280;58373;51.824;5.564;2023-08-20T09:02:58;102205.69;;;21.96;78.97
57990;BME280;58373;51.824;5.564;2023-08-20T09:05:24;102203.56;;;21.99;78.96
57990;BME280;58373;51.824;5.564;2023-08-20T09:07:54;102201.06;;;22.06;78.11
57990;BME280;58373;51.824;5.564;2023-08-20T09:10:20;102201.56;;;22.18;79.01
57990;BME280;58373;51.824;5.564;2023-08-20T09:12:45;102209.31;;;22.36;77.87
57990;BME280;58373;51.824;5.564;2023-08-20T09:15:12;102213.59;;;22.45;76.62
57990;BME280;58373;51.824;5.564;2023-08-20T09:17:37;102216.56;;;22.42;76.57
57990;BME280;58373;51.824;5.564;2023-08-20T09:20:03;102207.94;;;22.48;75.92
57990;BME280;58373;51.824;5.564;2023-08-20T09:22:28;102200.97;;;22.63;75.35
57990;BME280;58373;51.824;5.564;2023-08-20T09:24:54;102210.66;;;22.79;74.51
57990;BME280;58373;51.824;5.564;2023-08-20T09:27:20;102203.53;;;22.88;75.11
57990;BME280;58373;51.824;5.564;2023-08-20T09:32:14;102214.41;;;23.01;73.48
57990;BME280;58373;51.824;5.564;2023-08-20T09:34:40;102216.03;;;23.02;71.33
57990;BME280;58373;51.824;5.564;2023-08-20T09:37:15;102216.72;;;22.96;71.05
57990;BME280;58373;51.824;5.564;2023-08-20T09:39:40;102213.56;;;23.00;70.45
57990;BME280;58373;51.824;5.564;2023-08-20T09:42:06;102213.69;;;23.07;71.32
57990;BME280;58373;51.824;5.564;2023-08-20T09:44:35;102217.94;;;23.16;69.85
57990;BME280;58373;51.824;5.564;2023-08-20T09:47:22;102214.88;;;23.27;69.63
57990;BME280;58373;51.824;5.564;2023-08-20T09:49:47;102221.84;;;23.28;69.86
57990;BME280;58373;51.824;5.564;2023-08-20T09:52:27;102217.13;;;23.39;68.60
57990;BME280;58373;51.824;5.564;2023-08-20T09:57:34;102218.56;;;23.49;68.13
57990;BME280;58373;51.824;5.564;2023-08-20T10:00:00;102219.97;;;23.60;67.17
57990;BME280;58373;51.824;5.564;2023-08-20T10:02:26;102226.34;;;23.74;67.18
57990;BME280;58373;51.824;5.564;2023-08-20T10:04:51;102225.75;;;23.87;66.51
57990;BME280;58373;51.824;5.564;2023-08-20T10:07:17;102227.09;;;23.82;65.32
57990;BME280;58373;51.824;5.564;2023-08-20T10:09:43;102235.63;;;23.93;66.72
57990;BME280;58373;51.824;5.564;2023-08-20T10:12:11;102233.81;;;24.08;64.12
57990;BME280;58373;51.824;5.564;2023-08-20T10:14:36;102233.47;;;24.11;64.36
57990;BME280;58373;51.824;5.564;2023-08-20T10:17:06;102222.50;;;24.14;63.67
57990;BME280;58373;51.824;5.564;2023-08-20T10:19:31;102220.50;;;24.16;63.98
57990;BME280;58373;51.824;5.564;2023-08-20T10:21:57;102226.38;;;24.26;64.04
57990;BME280;58373;51.824;5.564;2023-08-20T10:24:23;102237.56;;;24.36;63.74
57990;BME280;58373;51.824;5.564;2023-08-20T10:26:48;102234.44;;;24.48;61.94
57990;BME280;58373;51.824;5.564;2023-08-20T10:29:35;102233.28;;;24.50;62.27
57990;BME280;58373;51.824;5.564;2023-08-20T10:32:03;102229.81;;;24.50;61.75
57990;BME280;58373;51.824;5.564;2023-08-20T10:34:38;102236.66;;;24.59;59.45
57990;BME280;58373;51.824;5.564;2023-08-20T10:37:13;102229.88;;;24.42;54.46
57990;BME280;58373;51.824;5.564;2023-08-20T10:39:41;102227.78;;;24.37;59.44
57990;BME280;58373;51.824;5.564;2023-08-20T10:44:56;102221.13;;;24.56;59.74
57990;BME280;58373;51.824;5.564;2023-08-20T10:47:22;102226.97;;;24.66;59.52
57990;BME280;58373;51.824;5.564;2023-08-20T10:49:50;102232.44;;;24.79;58.43
57990;BME280;58373;51.824;5.564;2023-08-20T10:52:17;102228.66;;;24.88;59.20
57990;BME280;58373;51.824;5.564;2023-08-20T10:54:43;102228.38;;;25.13;56.30
57990;BME280;58373;51.824;5.564;2023-08-20T10:57:08;102229.38;;;24.97;57.30
57990;BME280;58373;51.824;5.564;2023-08-20T10:59:34;102232.22;;;24.96;57.58
57990;BME280;58373;51.824;5.564;2023-08-20T11:02:03;102232.50;;;25.01;57.66
57990;BME280;58373;51.824;5.564;2023-08-20T11:04:32;102237.72;;;25.09;57.18
57990;BME280;58373;51.824;5.564;2023-08-20T11:06:58;102238.63;;;25.16;57.36
57990;BME280;58373;51.824;5.564;2023-08-20T11:09:24;102238.25;;;25.19;57.19
57990;BME280;58373;51.824;5.564;2023-08-20T11:11:50;102231.78;;;25.28;57.27
57990;BME280;58373;51.824;5.564;2023-08-20T11:14:17;102237.19;;;25.35;55.92
57990;BME280;58373;51.824;5.564;2023-08-20T11:16:43;102246.41;;;25.39;56.06
57990;BME280;58373;51.824;5.564;2023-08-20T11:19:11;102235.84;;;25.46;55.52
57990;BME280;58373;51.824;5.564;2023-08-20T11:21:40;102240.59;;;25.50;56.03
57990;BME280;58373;51.824;5.564;2023-08-20T11:24:05;102237.03;;;25.58;54.33
57990;BME280;58373;51.824;5.564;2023-08-20T11:26:31;102237.69;;;25.45;50.63
57990;BME280;58373;51.824;5.564;2023-08-20T11:28:57;102234.97;;;25.38;52.18
57990;BME280;58373;51.824;5.564;2023-08-20T11:31:22;102237.25;;;25.41;53.28
57990;BME280;58373;51.824;5.564;2023-08-20T11:33:49;102227.78;;;25.54;53.41
57990;BME280;58373;51.824;5.564;2023-08-20T11:36:15;102232.59;;;25.65;53.16
57990;BME280;58373;51.824;5.564;2023-08-20T11:38:40;102229.28;;;25.63;51.71
57990;BME280;58373;51.824;5.564;2023-08-20T11:41:05;102227.88;;;25.67;53.31
57990;BME280;58373;51.824;5.564;2023-08-20T11:43:30;102226.13;;;25.74;51.87
57990;BME280;58373;51.824;5.564;2023-08-20T11:45:55;102227.81;;;25.75;49.32
57990;BME280;58373;51.824;5.564;2023-08-20T11:48:21;102219.09;;;25.66;51.90
57990;BME280;58373;51.824;5.564;2023-08-20T11:50:46;102223.13;;;25.62;52.22
57990;BME280;58373;51.824;5.564;2023-08-20T11:53:12;102215.88;;;25.71;52.19
57990;BME280;58373;51.824;5.564;2023-08-20T11:55:37;102219.16;;;25.73;50.06
57990;BME280;58373;51.824;5.564;2023-08-20T11:58:03;102214.19;;;25.63;50.04
57990;BME280;58373;51.824;5.564;2023-08-20T12:00:30;102201.47;;;25.59;48.99
57990;BME280;58373;51.824;5.564;2023-08-20T12:02:55;102204.63;;;25.48;47.95
57990;BME280;58373;51.824;5.564;2023-08-20T12:05:27;102204.94;;;25.38;50.12
57990;BME280;58373;51.824;5.564;2023-08-20T12:07:59;102193.59;;;25.51;50.79
57990;BME280;58373;51.824;5.564;2023-08-20T12:10:28;102192.47;;;25.60;49.89
57990;BME280;58373;51.824;5.564;2023-08-20T12:12:54;102192.72;;;25.65;49.03
57990;BME280;58373;51.824;5.564;2023-08-20T12:15:20;102185.94;;;25.62;49.81
57990;BME280;58373;51.824;5.564;2023-08-20T12:20:40;102189.88;;;25.88;49.70
57990;BME280;58373;51.824;5.564;2023-08-20T12:23:06;102196.03;;;25.95;49.85
57990;BME280;58373;51.824;5.564;2023-08-20T12:25:32;102192.00;;;25.99;48.67
57990;BME280;58373;51.824;5.564;2023-08-20T12:27:58;102193.66;;;26.07;50.59
57990;BME280;58373;51.824;5.564;2023-08-20T12:30:23;102188.84;;;26.17;50.26
57990;BME280;58373;51.824;5.564;2023-08-20T12:32:49;102188.91;;;26.30;50.25
57990;BME280;58373;51.824;5.564;2023-08-20T12:35:14;102188.53;;;26.33;49.54
57990;BME280;58373;51.824;5.564;2023-08-20T12:37:40;102188.91;;;26.30;50.04
57990;BME280;58373;51.824;5.564;2023-08-20T12:40:05;102195.06;;;26.37;49.74
57990;BME280;58373;51.824;5.564;2023-08-20T12:42:35;102192.59;;;26.29;49.31
57990;BME280;58373;51.824;5.564;2023-08-20T12:45:00;102189.50;;;26.32;50.11
57990;BME280;58373;51.824;5.564;2023-08-20T12:47:25;102191.41;;;26.38;48.95
57990;BME280;58373;51.824;5.564;2023-08-20T12:49:51;102198.00;;;26.42;49.94
57990;BME280;58373;51.824;5.564;2023-08-20T12:52:16;102198.03;;;26.49;49.38
57990;BME280;58373;51.824;5.564;2023-08-20T12:54:41;102201.53;;;26.50;48.71
57990;BME280;58373;51.824;5.564;2023-08-20T12:57:06;102197.22;;;26.48;49.36
57990;BME280;58373;51.824;5.564;2023-08-20T12:59:31;102196.22;;;26.50;46.84
57990;BME280;58373;51.824;5.564;2023-08-20T13:01:57;102199.03;;;26.41;48.63
57990;BME280;58373;51.824;5.564;2023-08-20T13:04:23;102198.22;;;26.47;48.71